createdAt,value
2017-10-03T00:02:10.858Z,13.10
2017-10-03T00:04:38.932Z,13.10
2017-10-03T00:07:07.784Z,13.20
2017-10-03T00:09:35.933Z,13.10
2017-10-03T00:12:04.123Z,13.20
2017-10-03T00:14:33.163Z,13.20
2017-10-03T00:17:04.198Z,13.20
2017-10-03T00:19:32.314Z,13.10
2017-10-03T00:22:00.443Z,13.20
2017-10-03T00:24:28.569Z,13.20
2017-10-03T00:26:57.424Z,13.20
2017-10-03T00:29:25.533Z,13.20
2017-10-03T00:31:53.636Z,13.20
2017-10-03T00:34:21.810Z,13.20
2017-10-03T00:36:50.015Z,13.20
2017-10-03T00:39:18.116Z,13.30
2017-10-03T00:41:46.322Z,13.20
2017-10-03T00:44:14.565Z,13.20
2017-10-03T00:46:42.695Z,13.30
2017-10-03T00:49:10.878Z,13.30
2017-10-03T00:51:39.009Z,13.30
2017-10-03T00:54:07.157Z,13.30
2017-10-03T00:56:35.299Z,13.20
2017-10-03T00:59:03.415Z,13.20
2017-10-03T01:01:31.533Z,13.20
2017-10-03T01:04:00.430Z,13.20
2017-10-03T01:06:28.536Z,13.20
2017-10-03T01:08:57.401Z,13.20
2017-10-03T01:11:25.522Z,13.20
2017-10-03T01:13:53.618Z,13.20
2017-10-03T01:16:21.717Z,13.10
2017-10-03T01:18:49.830Z,13.10
2017-10-03T01:21:18.092Z,13.10
2017-10-03T01:23:46.161Z,13.00
2017-10-03T01:26:15.025Z,13.10
2017-10-03T01:28:43.125Z,13.10
2017-10-03T01:31:11.982Z,13.10
2017-10-03T01:33:40.078Z,13.10
2017-10-03T01:36:08.220Z,13.10
2017-10-03T01:38:36.414Z,13.10
2017-10-03T01:41:04.532Z,13.10
2017-10-03T01:43:34.182Z,13.00
2017-10-03T01:46:03.069Z,13.00
2017-10-03T01:48:31.174Z,13.00
2017-10-03T01:51:00.032Z,12.90
2017-10-03T01:53:28.889Z,13.00
2017-10-03T01:55:57.465Z,12.90
2017-10-03T01:58:26.359Z,12.80
2017-10-03T02:00:54.446Z,12.80
2017-10-03T02:03:22.573Z,12.80
2017-10-03T02:05:50.661Z,12.80
2017-10-03T02:08:18.818Z,12.80
2017-10-03T02:10:46.926Z,12.80
2017-10-03T02:13:15.013Z,12.80
2017-10-03T02:15:43.141Z,12.70
2017-10-03T02:18:11.318Z,12.70
2017-10-03T02:20:39.442Z,12.70
2017-10-03T02:23:07.549Z,12.70
2017-10-03T02:25:35.806Z,12.70
2017-10-03T02:28:04.730Z,12.70
2017-10-03T02:30:33.632Z,12.60
2017-10-03T02:33:01.701Z,12.60
2017-10-03T02:38:04.134Z,12.70
2017-10-03T02:40:32.261Z,12.60
2017-10-03T02:43:00.329Z,12.60
2017-10-03T02:45:29.177Z,12.60
2017-10-03T02:47:57.355Z,12.50
2017-10-03T02:50:25.451Z,12.60
2017-10-03T02:52:54.304Z,12.60
2017-10-03T02:55:22.413Z,12.50
2017-10-03T02:57:50.554Z,12.50
2017-10-03T03:00:18.686Z,12.60
2017-10-03T03:02:46.781Z,12.60
2017-10-03T03:05:14.868Z,12.50
2017-10-03T03:07:42.993Z,12.60
2017-10-03T03:10:11.201Z,12.50
2017-10-03T03:12:39.386Z,12.50
2017-10-03T03:15:08.326Z,12.50
2017-10-03T03:17:36.499Z,12.50
2017-10-03T03:20:05.348Z,12.50
2017-10-03T03:22:33.470Z,12.50
2017-10-03T03:25:01.580Z,12.50
2017-10-03T03:30:04.994Z,12.50
2017-10-03T03:32:33.123Z,12.40
2017-10-03T03:35:01.188Z,12.50
2017-10-03T03:37:29.300Z,12.50
2017-10-03T03:39:58.196Z,12.40
2017-10-03T03:42:27.064Z,12.40
2017-10-03T03:44:55.170Z,12.40
2017-10-03T03:47:23.277Z,12.40
2017-10-03T03:49:51.961Z,12.40
2017-10-03T03:52:20.876Z,12.30
2017-10-03T03:54:49.761Z,12.40
2017-10-03T03:57:18.657Z,12.30
2017-10-03T03:59:47.577Z,12.40
2017-10-03T04:02:15.724Z,12.30
2017-10-03T04:04:43.797Z,12.30
2017-10-03T04:07:11.926Z,12.30
2017-10-03T04:09:40.040Z,12.30
2017-10-03T04:12:08.914Z,12.20
2017-10-03T04:14:37.037Z,12.20
2017-10-03T04:17:05.175Z,12.20
2017-10-03T04:19:33.387Z,12.20
2017-10-03T04:22:02.255Z,12.20
2017-10-03T04:24:30.357Z,12.20
2017-10-03T04:26:58.478Z,12.20
2017-10-03T04:29:28.074Z,12.20
2017-10-03T04:31:57.702Z,12.10
2017-10-03T04:34:25.830Z,12.10
2017-10-03T04:36:53.908Z,12.20
2017-10-03T04:39:22.766Z,12.20
2017-10-03T04:41:50.850Z,12.10
2017-10-03T04:44:18.990Z,12.20
2017-10-03T04:46:47.084Z,12.20
2017-10-03T04:49:15.200Z,12.20
2017-10-03T04:51:45.107Z,12.20
2017-10-03T04:54:13.190Z,12.20
2017-10-03T04:56:41.291Z,12.20
2017-10-03T04:59:10.146Z,12.10
2017-10-03T05:01:39.038Z,12.10
2017-10-03T05:04:07.214Z,12.10
2017-10-03T05:06:35.281Z,12.20
2017-10-03T05:09:03.404Z,12.20
2017-10-03T05:11:31.518Z,12.20
2017-10-03T05:13:59.630Z,12.20
2017-10-03T05:16:27.723Z,12.20
2017-10-03T05:18:55.863Z,12.10
2017-10-03T05:21:23.973Z,12.20
2017-10-03T05:23:52.874Z,12.10
2017-10-03T05:26:21.108Z,12.10
2017-10-03T05:28:49.243Z,12.10
2017-10-03T05:31:17.388Z,12.10
2017-10-03T05:33:45.586Z,12.10
2017-10-03T05:36:13.675Z,12.10
2017-10-03T05:38:42.566Z,12.00
2017-10-03T05:41:10.931Z,12.00
2017-10-03T05:43:39.053Z,12.10
2017-10-03T05:46:07.510Z,12.00
2017-10-03T05:48:36.397Z,12.10
2017-10-03T05:51:04.471Z,12.10
2017-10-03T05:53:32.581Z,12.10
2017-10-03T05:56:01.470Z,12.10
2017-10-03T05:58:29.588Z,12.00
2017-10-03T06:00:57.685Z,12.10
2017-10-03T06:03:26.588Z,12.20
2017-10-03T06:05:54.689Z,12.10
2017-10-03T06:08:22.744Z,12.20
2017-10-03T06:10:50.856Z,12.30
2017-10-03T06:13:19.368Z,12.20
2017-10-03T06:15:47.441Z,12.20
2017-10-03T06:18:15.552Z,12.30
2017-10-03T06:20:43.648Z,12.30
2017-10-03T06:23:11.799Z,12.30
2017-10-03T06:25:39.956Z,12.40
2017-10-03T06:28:08.065Z,12.40
2017-10-03T06:30:36.930Z,12.50
2017-10-03T06:33:05.857Z,12.50
2017-10-03T06:35:33.984Z,12.50
2017-10-03T06:38:02.874Z,12.80
2017-10-03T06:40:32.478Z,12.80
2017-10-03T06:43:00.606Z,12.80
2017-10-03T06:45:28.709Z,12.90
2017-10-03T06:47:56.842Z,13.20
2017-10-03T06:50:24.961Z,13.20
2017-10-03T06:52:53.837Z,13.20
2017-10-03T06:55:21.929Z,13.20
2017-10-03T06:57:50.081Z,13.20
2017-10-03T07:00:18.176Z,13.30
2017-10-03T07:02:46.224Z,13.20
2017-10-03T07:05:14.333Z,13.10
2017-10-03T07:07:43.200Z,13.10
2017-10-03T07:10:12.193Z,13.10
2017-10-03T07:12:40.314Z,13.10
2017-10-03T07:15:08.407Z,13.20
2017-10-03T07:17:36.503Z,13.20
2017-10-03T07:20:04.625Z,13.20
2017-10-03T07:22:32.740Z,13.20
2017-10-03T07:25:00.870Z,13.20
2017-10-03T07:27:29.585Z,13.30
2017-10-03T07:29:57.727Z,13.30
2017-10-03T07:32:25.810Z,13.40
2017-10-03T07:34:53.925Z,13.40
2017-10-03T07:37:22.145Z,13.30
2017-10-03T07:39:50.261Z,13.40
2017-10-03T07:42:18.373Z,13.60
2017-10-03T07:44:47.259Z,14.30
2017-10-03T07:47:15.388Z,14.30
2017-10-03T07:49:43.522Z,14.80
2017-10-03T07:52:11.582Z,15.10
2017-10-03T07:54:39.702Z,15.50
2017-10-03T07:57:07.921Z,15.70
2017-10-03T07:59:36.088Z,15.80
2017-10-03T08:02:04.197Z,15.50
2017-10-03T08:04:32.300Z,15.60
2017-10-03T08:07:00.381Z,15.70
2017-10-03T08:09:28.456Z,15.70
2017-10-03T08:11:56.571Z,16.00
2017-10-03T08:14:24.710Z,16.30
2017-10-03T08:16:52.800Z,16.40
2017-10-03T08:19:21.677Z,16.70
2017-10-03T08:21:49.792Z,16.70
2017-10-03T08:24:17.870Z,16.70
2017-10-03T08:26:45.963Z,16.40
2017-10-03T08:29:14.044Z,16.40
2017-10-03T08:31:42.196Z,16.60
2017-10-03T08:34:10.305Z,17.10
2017-10-03T08:36:38.418Z,17.50
2017-10-03T08:39:06.516Z,17.80
2017-10-03T08:41:34.615Z,17.60
2017-10-03T08:44:02.686Z,17.70
2017-10-03T08:46:31.254Z,18.00
2017-10-03T08:48:59.359Z,17.90
2017-10-03T08:51:27.441Z,17.70
2017-10-03T08:53:55.647Z,18.10
2017-10-03T08:56:23.747Z,18.10
2017-10-03T08:58:51.825Z,18.30
2017-10-03T09:01:19.927Z,18.60
2017-10-03T09:03:48.029Z,19.00
2017-10-03T09:06:17.632Z,19.60
2017-10-03T09:08:46.522Z,19.90
2017-10-03T09:11:14.642Z,19.90
2017-10-03T09:13:42.790Z,20.00
2017-10-03T09:16:10.894Z,20.20
2017-10-03T09:18:39.223Z,20.70
2017-10-03T09:21:07.330Z,21.00
2017-10-03T09:23:35.424Z,21.10
2017-10-03T09:26:03.518Z,21.20
2017-10-03T09:28:32.379Z,21.30
2017-10-03T09:31:00.458Z,21.20
2017-10-03T09:33:29.337Z,21.50
2017-10-03T09:35:57.430Z,21.40
2017-10-03T09:38:25.638Z,21.50
2017-10-03T09:40:53.758Z,21.30
2017-10-03T09:43:23.183Z,21.00
2017-10-03T09:45:52.141Z,21.30
2017-10-03T09:48:20.275Z,21.20
2017-10-03T09:50:48.361Z,21.50
2017-10-03T09:53:16.509Z,22.00
2017-10-03T09:55:44.629Z,20.80
2017-10-03T09:58:13.487Z,21.10
2017-10-03T10:00:41.600Z,21.00
2017-10-03T10:03:10.482Z,21.80
2017-10-03T10:05:38.569Z,21.70
2017-10-03T10:08:06.754Z,21.60
2017-10-03T10:10:34.908Z,21.70
2017-10-03T10:13:03.129Z,21.80
2017-10-03T10:15:31.292Z,22.30
2017-10-03T10:17:59.409Z,22.20
2017-10-03T10:20:27.508Z,22.10
2017-10-03T10:22:55.701Z,22.10
2017-10-03T10:25:23.783Z,21.90
2017-10-03T10:27:51.918Z,22.10
2017-10-03T10:30:20.071Z,22.30
2017-10-03T10:32:48.178Z,22.30
2017-10-03T10:35:16.244Z,22.10
2017-10-03T10:37:44.355Z,22.00
2017-10-03T10:40:12.457Z,21.80
2017-10-03T10:42:40.605Z,21.90
2017-10-03T10:45:09.517Z,20.90
2017-10-03T10:47:37.640Z,20.90
2017-10-03T10:50:05.706Z,20.80
2017-10-03T10:52:34.561Z,21.70
2017-10-03T10:55:02.683Z,21.60
2017-10-03T10:57:30.792Z,21.30
2017-10-03T10:59:59.671Z,21.10
2017-10-03T11:02:27.782Z,21.10
2017-10-03T11:04:55.879Z,20.90
2017-10-03T11:07:24.779Z,20.70
2017-10-03T11:09:52.944Z,20.60
2017-10-03T11:12:21.048Z,20.60
2017-10-03T11:14:49.171Z,20.40
2017-10-03T11:17:17.288Z,20.60
2017-10-03T11:19:45.388Z,20.80
2017-10-03T11:22:13.516Z,21.00
2017-10-03T11:24:45.159Z,20.90
2017-10-03T11:27:13.319Z,20.60
2017-10-03T11:29:42.183Z,20.30
2017-10-03T11:32:10.292Z,20.30
2017-10-03T11:34:38.450Z,20.70
2017-10-03T11:37:06.531Z,21.30
2017-10-03T11:39:34.694Z,21.80
2017-10-03T11:42:02.777Z,22.00
2017-10-03T11:44:31.070Z,21.80
2017-10-03T11:46:59.436Z,22.10
2017-10-03T11:49:27.524Z,21.90
2017-10-03T11:51:55.614Z,22.20
2017-10-03T11:54:23.756Z,22.30
2017-10-03T11:56:51.944Z,22.50
2017-10-03T11:59:20.125Z,22.20
2017-10-03T12:01:48.493Z,21.80
2017-10-03T12:04:17.395Z,21.30
2017-10-03T12:06:47.031Z,21.20
2017-10-03T12:09:15.931Z,20.80
2017-10-03T12:11:44.120Z,20.80
2017-10-03T12:14:12.240Z,21.00
2017-10-03T12:16:41.099Z,20.70
2017-10-03T12:19:09.216Z,20.70
2017-10-03T12:21:37.302Z,20.60
2017-10-03T12:24:05.410Z,20.40
2017-10-03T12:26:34.879Z,20.80
2017-10-03T12:29:03.033Z,21.10
2017-10-03T12:31:31.166Z,21.30
2017-10-03T12:33:59.734Z,21.10
2017-10-03T12:36:27.979Z,21.30
2017-10-03T12:38:56.111Z,21.00
2017-10-03T12:41:24.262Z,20.50
2017-10-03T12:43:52.378Z,20.30
2017-10-03T12:46:20.437Z,20.20
2017-10-03T12:48:48.541Z,20.00
2017-10-03T12:51:16.615Z,19.60
2017-10-03T12:53:45.019Z,19.30
2017-10-03T12:56:13.103Z,19.00
2017-10-03T12:58:41.263Z,19.00
2017-10-03T13:01:09.348Z,19.40
2017-10-03T13:03:37.502Z,19.90
2017-10-03T13:06:05.578Z,20.30
2017-10-03T13:08:33.775Z,20.40
2017-10-03T13:11:01.886Z,20.30
2017-10-03T13:13:30.753Z,20.00
2017-10-03T13:15:59.640Z,20.00
2017-10-03T13:18:27.730Z,20.00
2017-10-03T13:20:56.577Z,20.50
2017-10-03T13:23:24.697Z,20.40
2017-10-03T13:25:52.816Z,20.40
2017-10-03T13:28:21.017Z,20.00
2017-10-03T13:30:52.219Z,19.60
2017-10-03T13:33:22.463Z,19.20
2017-10-03T13:35:50.543Z,19.00
2017-10-03T13:38:18.699Z,18.80
2017-10-03T13:40:46.774Z,18.70
2017-10-03T13:43:14.893Z,18.90
2017-10-03T13:45:43.035Z,19.30
2017-10-03T13:48:11.133Z,19.50
2017-10-03T13:50:39.238Z,19.50
2017-10-03T13:53:07.344Z,19.90
2017-10-03T13:55:35.535Z,20.00
2017-10-03T13:58:04.426Z,19.80
2017-10-03T14:00:32.548Z,19.80
2017-10-03T14:03:00.850Z,19.80
2017-10-03T14:05:28.992Z,19.50
2017-10-03T14:07:57.911Z,19.00
2017-10-03T14:10:26.044Z,19.00
2017-10-03T14:12:55.230Z,18.70
2017-10-03T14:15:23.300Z,18.40
2017-10-03T14:17:51.635Z,17.80
2017-10-03T14:20:20.494Z,17.10
2017-10-03T14:22:49.458Z,17.10
2017-10-03T14:25:17.560Z,17.00
2017-10-03T14:27:45.737Z,16.80
2017-10-03T14:30:13.865Z,16.70
2017-10-03T14:32:41.938Z,16.60
2017-10-03T14:35:10.848Z,16.50
2017-10-03T14:37:39.020Z,16.50
2017-10-03T14:40:07.163Z,16.50
2017-10-03T14:42:35.321Z,16.30
2017-10-03T14:45:03.474Z,16.20
2017-10-03T14:47:32.503Z,16.30
2017-10-03T14:50:00.579Z,16.20
2017-10-03T14:52:28.768Z,16.20
2017-10-03T14:54:56.846Z,16.20
2017-10-03T14:57:24.940Z,16.20
2017-10-03T14:59:53.013Z,16.10
2017-10-03T15:02:21.146Z,16.10
2017-10-03T15:04:49.292Z,16.00
2017-10-03T15:07:17.405Z,15.90
2017-10-03T15:09:45.540Z,15.90
2017-10-03T15:12:13.637Z,15.80
2017-10-03T15:14:41.774Z,15.70
2017-10-03T15:17:09.932Z,15.80
2017-10-03T15:19:38.071Z,15.70
2017-10-03T15:22:06.199Z,15.60
2017-10-03T15:24:35.085Z,15.50
2017-10-03T15:27:03.207Z,15.40
2017-10-03T15:29:31.296Z,15.40
2017-10-03T15:31:59.404Z,15.50
2017-10-03T15:34:27.586Z,15.40
2017-10-03T15:36:57.021Z,15.30
2017-10-03T15:39:25.954Z,15.30
2017-10-03T15:41:54.107Z,15.20
2017-10-03T15:44:22.269Z,15.20
2017-10-03T15:46:50.354Z,15.20
2017-10-03T15:49:19.238Z,15.00
2017-10-03T15:51:47.397Z,15.00
2017-10-03T15:54:15.537Z,15.00
2017-10-03T15:56:43.667Z,15.00
2017-10-03T15:59:11.832Z,15.00
2017-10-03T16:01:39.977Z,15.00
2017-10-03T16:04:09.577Z,15.00
2017-10-03T16:06:38.478Z,15.10
2017-10-03T16:09:06.580Z,15.10
2017-10-03T16:11:35.425Z,15.10
2017-10-03T16:14:03.517Z,15.00
2017-10-03T16:16:32.383Z,15.10
2017-10-03T16:19:01.260Z,15.10
2017-10-03T16:21:29.425Z,15.00
2017-10-03T16:23:57.547Z,15.10
2017-10-03T16:26:25.619Z,15.00
2017-10-03T16:28:53.763Z,15.00
2017-10-03T16:31:21.862Z,15.00
2017-10-03T16:33:49.963Z,15.00
2017-10-03T16:36:18.165Z,15.00
2017-10-03T16:38:46.335Z,15.00
2017-10-03T16:41:14.511Z,14.90
2017-10-03T16:43:42.714Z,14.90
2017-10-03T16:46:10.842Z,14.80
2017-10-03T16:48:38.926Z,14.70
2017-10-03T16:51:07.018Z,14.70
2017-10-03T16:53:35.115Z,14.70
2017-10-03T16:56:03.308Z,14.60
2017-10-03T16:58:31.448Z,14.70
2017-10-03T17:00:59.576Z,14.70
2017-10-03T17:03:29.216Z,14.60
2017-10-03T17:05:57.347Z,14.60
2017-10-03T17:08:25.438Z,14.60
2017-10-03T17:10:54.331Z,14.60
2017-10-03T17:13:22.428Z,14.50
2017-10-03T17:15:50.698Z,14.50
2017-10-03T17:18:18.903Z,14.60
2017-10-03T17:20:47.020Z,14.50
2017-10-03T17:23:16.319Z,14.50
2017-10-03T17:25:45.209Z,14.50
2017-10-03T17:28:13.313Z,14.40
2017-10-03T17:30:41.489Z,14.50
2017-10-03T17:33:10.454Z,14.40
2017-10-03T17:35:38.875Z,14.40
2017-10-03T17:38:06.996Z,14.30
2017-10-03T17:40:35.181Z,14.30
2017-10-03T17:43:04.079Z,14.30
2017-10-03T17:45:32.173Z,14.30
2017-10-03T17:48:00.321Z,14.30
2017-10-03T17:50:28.441Z,14.10
2017-10-03T17:52:56.548Z,14.10
2017-10-03T17:55:24.631Z,14.20
2017-10-03T17:57:52.945Z,14.10
2017-10-03T18:00:21.113Z,14.10
2017-10-03T18:02:49.214Z,14.10
2017-10-03T18:05:17.453Z,14.10
2017-10-03T18:07:45.553Z,14.10
2017-10-03T18:10:13.668Z,14.00
2017-10-03T18:12:41.786Z,14.00
2017-10-03T18:15:09.875Z,13.90
2017-10-03T18:17:37.977Z,13.90
2017-10-03T18:20:06.071Z,13.90
2017-10-03T18:22:34.938Z,13.80
2017-10-03T18:25:03.115Z,13.70
2017-10-03T18:27:32.036Z,13.70
2017-10-03T18:30:00.894Z,13.60
2017-10-03T18:32:29.076Z,13.50
2017-10-03T18:34:57.180Z,13.50
2017-10-03T18:37:26.027Z,13.40
2017-10-03T18:39:54.116Z,13.40
2017-10-03T18:42:22.247Z,13.40
2017-10-03T18:44:50.387Z,13.40
2017-10-03T18:47:18.525Z,13.40
2017-10-03T18:49:46.623Z,13.30
2017-10-03T18:52:14.736Z,13.30
2017-10-03T18:54:42.822Z,13.20
2017-10-03T18:57:11.717Z,13.20
2017-10-03T18:59:39.799Z,13.10
2017-10-03T19:02:07.910Z,13.20
2017-10-03T19:04:36.036Z,13.20
2017-10-03T19:07:04.927Z,13.20
2017-10-03T19:09:33.828Z,13.00
2017-10-03T19:12:01.941Z,13.00
2017-10-03T19:14:30.079Z,13.00
2017-10-03T19:16:58.962Z,13.00
2017-10-03T19:19:27.889Z,13.00
2017-10-03T19:21:55.996Z,13.00
2017-10-03T19:24:24.189Z,13.10
2017-10-03T19:26:52.324Z,13.00
2017-10-03T19:29:20.402Z,13.00
2017-10-03T19:31:48.494Z,12.90
2017-10-03T19:34:16.713Z,12.90
2017-10-03T19:36:44.847Z,12.90
2017-10-03T19:39:12.911Z,12.90
2017-10-03T19:41:41.427Z,12.90
2017-10-03T19:44:10.318Z,13.00
2017-10-03T19:46:38.419Z,13.00
2017-10-03T19:49:06.529Z,13.00
2017-10-03T19:51:34.615Z,13.00
2017-10-03T19:54:02.737Z,13.00
2017-10-03T19:56:31.640Z,13.00
2017-10-03T19:58:59.761Z,13.00
2017-10-03T20:01:27.838Z,13.00
2017-10-03T20:03:55.986Z,13.00
2017-10-03T20:06:24.097Z,12.90
2017-10-03T20:08:52.345Z,12.90
2017-10-03T20:11:20.422Z,12.90
2017-10-03T20:13:48.524Z,12.90
2017-10-03T20:16:17.494Z,12.90
2017-10-03T20:18:45.709Z,12.90
2017-10-03T20:21:13.854Z,12.90
2017-10-03T20:23:42.704Z,13.00
2017-10-03T20:26:10.929Z,12.90
2017-10-03T20:28:40.641Z,12.90
2017-10-03T20:31:09.480Z,12.90
2017-10-03T20:33:37.597Z,12.80
2017-10-03T20:36:05.703Z,13.00
2017-10-03T20:38:33.785Z,12.90
2017-10-03T20:41:02.692Z,12.80
2017-10-03T20:43:30.801Z,12.80
2017-10-03T20:45:58.882Z,12.90
2017-10-03T20:48:26.989Z,12.90
2017-10-03T20:50:55.127Z,12.90
2017-10-03T20:53:23.435Z,12.90
2017-10-03T20:55:51.545Z,12.80
2017-10-03T20:58:19.650Z,12.80
2017-10-03T21:00:48.510Z,12.80
2017-10-03T21:03:16.602Z,12.80
2017-10-03T21:05:44.741Z,12.90
2017-10-03T21:08:12.816Z,12.80
2017-10-03T21:10:40.979Z,12.80
2017-10-03T21:13:09.096Z,12.80
2017-10-03T21:15:37.206Z,12.80
2017-10-03T21:18:06.116Z,12.80
2017-10-03T21:20:34.192Z,12.80
2017-10-03T21:23:02.362Z,12.80
2017-10-03T21:25:30.441Z,12.80
2017-10-03T21:27:58.607Z,12.80
2017-10-03T21:30:27.169Z,12.80
2017-10-03T21:32:56.023Z,12.80
2017-10-03T21:35:24.223Z,12.70
2017-10-03T21:37:52.304Z,12.80
2017-10-03T21:40:20.535Z,12.80
2017-10-03T21:43:00.754Z,12.80
2017-10-03T21:45:28.955Z,12.70
2017-10-03T21:47:57.112Z,12.70
2017-10-03T21:50:25.221Z,12.70
2017-10-03T21:52:53.300Z,12.80
2017-10-03T21:55:21.437Z,12.80
2017-10-03T21:57:49.543Z,12.80
2017-10-03T22:00:17.735Z,12.80
2017-10-03T22:02:45.805Z,12.80
2017-10-03T22:05:13.912Z,12.90
2017-10-03T22:07:42.089Z,12.80
2017-10-03T22:10:10.186Z,12.80
2017-10-03T22:12:38.276Z,12.70
2017-10-03T22:15:06.438Z,12.70
2017-10-03T22:17:34.515Z,12.70
2017-10-03T22:20:04.157Z,12.60
2017-10-03T22:22:32.255Z,12.70
2017-10-03T22:25:00.349Z,12.70
2017-10-03T22:27:28.412Z,12.70
2017-10-03T22:29:56.505Z,12.70
2017-10-03T22:32:24.586Z,12.70
2017-10-03T22:34:52.660Z,12.60
2017-10-03T22:37:21.514Z,12.80
2017-10-03T22:39:49.767Z,12.70
2017-10-03T22:42:17.875Z,12.70
2017-10-03T22:44:45.998Z,12.70
2017-10-03T22:47:14.078Z,12.60
2017-10-03T22:49:42.204Z,12.60
2017-10-03T22:52:17.528Z,12.60
2017-10-03T22:54:45.668Z,12.60
2017-10-03T22:57:14.532Z,12.70
2017-10-03T22:59:43.382Z,12.70
2017-10-03T23:02:12.216Z,12.70
2017-10-03T23:04:40.298Z,12.70
2017-10-03T23:07:09.152Z,12.60
2017-10-03T23:09:37.242Z,12.60
2017-10-03T23:12:05.360Z,12.60
2017-10-03T23:14:33.448Z,12.60
2017-10-03T23:17:01.517Z,12.60
2017-10-03T23:19:29.621Z,12.50
2017-10-03T23:21:58.465Z,12.50
2017-10-03T23:24:26.572Z,12.40
2017-10-03T23:26:54.631Z,12.50
2017-10-03T23:29:22.712Z,12.50
2017-10-03T23:31:50.801Z,12.40
2017-10-03T23:34:18.881Z,12.40
2017-10-03T23:36:47.854Z,12.40
2017-10-03T23:39:15.949Z,12.40
2017-10-03T23:41:44.079Z,12.40
2017-10-03T23:44:13.509Z,12.50
2017-10-03T23:46:42.334Z,12.40
2017-10-03T23:49:10.491Z,12.40
2017-10-03T23:51:39.392Z,12.40
2017-10-03T23:54:08.279Z,12.50
2017-10-03T23:56:36.510Z,12.40
2017-10-03T23:59:04.602Z,12.50
